Oshkosh, WI (54901)

9:56 AM CDT on March 30, 2017 (GMT -0500)
Ferry Crossing Neighborhood | | Change Station

Elev 781 ft 44.05 °N, 88.56 °W | Updated 17 seconds ago

Light Snow
Light Snow Mist
34.0 °F
Feels Like 29 °F
N
5.3
Wind Variable Wind from NW
Gusts 10.9 mph

Today
High -- | Low -- °F
--% Chance of Precip.
Yesterday
High -- | Low -- °F
Precip. -- in
Pressure 29.94 in
Visibility 4.0 miles
Clouds Overcast 600 ft
Windchill 29 °F
Dew Point 32 °F
Humidity 94%
Rainfall 0.29 in
Snow Depth Not available.
6:38 AM 7:19 PM
Waxing Crescent, 9% visible
METAR KOSH 301453Z 05014KT 4SM -SN BR OVC006 01/00 A2990 RMK AO2 CIG 004V010 SLP136 P0006 60011 T00110000 58017
Pressure 29.94 in
Visibility 4.0 miles
Clouds Overcast 600 ft
Windchill 29 °F
Dew Point 32 °F
Humidity 94%
Rainfall 0.29 in
Snow Depth Not available.
6:38 AM 7:19 PM
Waxing Crescent, 9% visible
METAR KOSH 301453Z 05014KT 4SM -SN BR OVC006 01/00 A2990 RMK AO2 CIG 004V010 SLP136 P0006 60011 T00110000 58017

Get Severe Weather Alerts

Thanks for signing up!

Be on the lookout for a verification email in your inbox.

You'll start receiving the daily forecast at 8 AM.

×

10-Day Weather Forecast

Almanac

Astronomy

Mar. 30, 2017 Rise Set
Actual Time
Civil Twilight
Nautical Twilight
Astronomical Twilight
Moon
Length of Visible Light
Length of Day
Tomorrow will be .
, % of the Moon is Illuminated

Today's Extremes

State Highs State Lows

Community

WunderPhotos

Upload Photos

1,962,540 photos uploaded!

WunderBlog® & News

Nearby

Air Quality

  Air Quality AQ Index Pollutant
Not available.

Snow Depth

Station Depth Elevation

Earthquake Activity

City Distance Mag. Time & Date
Minimum magnitude displayed is 2.5.

Earthquake Activity

City Distance Mag. Time & Date
Minimum magnitude displayed is 2.5.

Coastal Water Temperatures

Place Temperature

Stations

Nearby Weather Stations

Station Location Temp. Windchill Dew Point Humidity Wind Precip. Elev Updated Type
                   

Watches & Warnings

There are currently no watches in effect.